sensor_id;sensor_type;location;lat;lon;timestamp;pressure;altitude;pressure_sealevel;temperature;humidity
44144;BME280;43510;51.920;4.492;2022-10-16T00:00:19;67713.22;;;16.77;90.31
44144;BME280;43510;51.920;4.492;2022-10-16T00:02:45;67699.09;;;16.71;90.30
44144;BME280;43510;51.920;4.492;2022-10-16T00:05:10;67715.47;;;16.79;90.66
44144;BME280;43510;51.920;4.492;2022-10-16T00:07:35;67719.38;;;16.82;90.35
44144;BME280;43510;51.920;4.492;2022-10-16T00:10:01;67720.75;;;16.79;90.45
44144;BME280;43510;51.920;4.492;2022-10-16T00:12:26;67718.81;;;16.82;90.15
44144;BME280;43510;51.920;4.492;2022-10-16T00:14:52;67715.59;;;16.81;90.12
44144;BME280;43510;51.920;4.492;2022-10-16T00:17:17;67718.25;;;16.81;90.04
44144;BME280;43510;51.920;4.492;2022-10-16T00:19:42;67716.03;;;16.79;89.78
44144;BME280;43510;51.920;4.492;2022-10-16T00:22:08;67685.72;;;16.52;91.83
44144;BME280;43510;51.920;4.492;2022-10-16T00:24:33;67645.91;;;16.16;94.48
44144;BME280;43510;51.920;4.492;2022-10-16T00:26:59;67615.09;;;15.88;96.81
44144;BME280;43510;51.920;4.492;2022-10-16T00:29:24;67586.31;;;15.67;99.17
44144;BME280;43510;51.920;4.492;2022-10-16T00:31:50;67587.34;;;15.58;100.00
44144;BME280;43510;51.920;4.492;2022-10-16T00:34:15;67565.00;;;15.47;100.00
44144;BME280;43510;51.920;4.492;2022-10-16T00:36:42;67571.41;;;15.48;100.00
44144;BME280;43510;51.920;4.492;2022-10-16T00:39:07;67577.16;;;15.56;100.00
44144;BME280;43510;51.920;4.492;2022-10-16T00:41:33;67584.44;;;15.63;100.00
44144;BME280;43510;51.920;4.492;2022-10-16T00:44:02;67579.97;;;15.59;100.00
44144;BME280;43510;51.920;4.492;2022-10-16T00:49:04;67551.81;;;15.31;100.00
44144;BME280;43510;51.920;4.492;2022-10-16T00:51:33;67529.00;;;15.13;100.00
44144;BME280;43510;51.920;4.492;2022-10-16T00:53:59;67511.63;;;14.97;100.00
44144;BME280;43510;51.920;4.492;2022-10-16T00:56:25;67510.91;;;14.94;100.00
44144;BME280;43510;51.920;4.492;2022-10-16T00:58:52;67523.78;;;15.05;100.00
44144;BME280;43510;51.920;4.492;2022-10-16T01:01:17;67537.06;;;15.15;100.00
44144;BME280;43510;51.920;4.492;2022-10-16T01:03:42;67543.97;;;15.24;100.00
44144;BME280;43510;51.920;4.492;2022-10-16T01:06:43;67570.28;;;15.47;100.00
44144;BME280;43510;51.920;4.492;2022-10-16T01:09:23;67571.97;;;15.49;100.00
44144;BME280;43510;51.920;4.492;2022-10-16T01:11:57;67572.50;;;15.49;100.00
44144;BME280;43510;51.920;4.492;2022-10-16T01:14:36;67575.91;;;15.52;100.00
44144;BME280;43510;51.920;4.492;2022-10-16T01:17:32;67587.66;;;15.63;100.00
44144;BME280;43510;51.920;4.492;2022-10-16T01:20:09;67582.06;;;15.58;100.00
44144;BME280;43510;51.920;4.492;2022-10-16T01:22:47;67579.97;;;15.59;100.00
44144;BME280;43510;51.920;4.492;2022-10-16T01:28:11;67577.59;;;15.54;100.00
44144;BME280;43510;51.920;4.492;2022-10-16T01:30:40;67568.03;;;15.45;100.00
44144;BME280;43510;51.920;4.492;2022-10-16T01:33:21;67569.88;;;15.49;100.00
44144;BME280;43510;51.920;4.492;2022-10-16T01:35:52;67597.59;;;15.70;100.00
44144;BME280;43510;51.920;4.492;2022-10-16T01:38:31;67568.59;;;15.46;100.00
44144;BME280;43510;51.920;4.492;2022-10-16T01:41:14;67556.28;;;15.35;100.00
44144;BME280;43510;51.920;4.492;2022-10-16T01:43:48;67562.81;;;15.38;100.00
44144;BME280;43510;51.920;4.492;2022-10-16T01:46:17;67549.25;;;15.24;100.00
44144;BME280;43510;51.920;4.492;2022-10-16T01:48:44;67553.25;;;15.37;100.00
44144;BME280;43510;51.920;4.492;2022-10-16T01:51:12;67548.75;;;15.33;100.00
44144;BME280;43510;51.920;4.492;2022-10-16T01:53:41;67551.81;;;15.31;100.00
44144;BME280;43510;51.920;4.492;2022-10-16T01:56:10;67554.97;;;15.31;100.00
44144;BME280;43510;51.920;4.492;2022-10-16T01:58:40;67561.88;;;15.40;100.00
44144;BME280;43510;51.920;4.492;2022-10-16T02:01:10;67566.75;;;15.42;100.00
44144;BME280;43510;51.920;4.492;2022-10-16T02:03:37;67566.34;;;15.44;100.00
44144;BME280;43510;51.920;4.492;2022-10-16T02:06:06;67565.47;;;15.38;100.00
44144;BME280;43510;51.920;4.492;2022-10-16T02:08:32;67570.44;;;15.50;100.00
44144;BME280;43510;51.920;4.492;2022-10-16T02:11:00;67569.72;;;15.47;100.00
44144;BME280;43510;51.920;4.492;2022-10-16T02:13:46;67586.94;;;15.60;100.00
44144;BME280;43510;51.920;4.492;2022-10-16T02:16:14;67578.72;;;15.55;100.00
44144;BME280;43510;51.920;4.492;2022-10-16T02:18:40;67585.41;;;15.61;100.00
44144;BME280;43510;51.920;4.492;2022-10-16T02:21:28;67594.38;;;15.69;100.00
44144;BME280;43510;51.920;4.492;2022-10-16T02:26:36;67595.75;;;15.66;100.00
44144;BME280;43510;51.920;4.492;2022-10-16T02:29:08;67591.59;;;15.67;100.00
44144;BME280;43510;51.920;4.492;2022-10-16T02:31:41;67595.50;;;15.70;100.00
44144;BME280;43510;51.920;4.492;2022-10-16T02:34:10;67594.38;;;15.69;100.00
44144;BME280;43510;51.920;4.492;2022-10-16T02:36:41;67587.41;;;15.68;100.00
44144;BME280;43510;51.920;4.492;2022-10-16T02:39:08;67593.09;;;15.66;100.00
44144;BME280;43510;51.920;4.492;2022-10-16T02:41:35;67597.59;;;15.70;100.00
44144;BME280;43510;51.920;4.492;2022-10-16T02:44:01;67590.59;;;15.68;100.00
44144;BME280;43510;51.920;4.492;2022-10-16T02:46:27;67596.06;;;15.71;100.00
44144;BME280;43510;51.920;4.492;2022-10-16T02:48:53;67589.34;;;15.65;100.00
44144;BME280;43510;51.920;4.492;2022-10-16T02:51:18;67592.13;;;15.67;100.00
44144;BME280;43510;51.920;4.492;2022-10-16T02:53:43;67586.13;;;15.64;100.00
44144;BME280;43510;51.920;4.492;2022-10-16T02:56:09;67587.66;;;15.63;100.00
44144;BME280;43510;51.920;4.492;2022-10-16T02:58:34;67591.59;;;15.67;100.00
44144;BME280;43510;51.920;4.492;2022-10-16T03:01:00;67589.72;;;15.63;100.00
44144;BME280;43510;51.920;4.492;2022-10-16T03:03:25;67586.53;;;15.62;100.00
44144;BME280;43510;51.920;4.492;2022-10-16T03:05:52;67589.16;;;15.62;100.00
44144;BME280;43510;51.920;4.492;2022-10-16T03:08:24;67590.28;;;15.63;100.00
44144;BME280;43510;51.920;4.492;2022-10-16T03:10:59;67589.03;;;15.60;100.00
44144;BME280;43510;51.920;4.492;2022-10-16T03:13:35;67587.66;;;15.63;100.00
44144;BME280;43510;51.920;4.492;2022-10-16T03:16:00;67582.94;;;15.64;100.00
44144;BME280;43510;51.920;4.492;2022-10-16T03:18:26;67594.63;;;15.65;100.00
44144;BME280;43510;51.920;4.492;2022-10-16T03:20:51;67588.38;;;15.66;100.00
44144;BME280;43510;51.920;4.492;2022-10-16T03:23:18;67591.03;;;15.66;100.00
44144;BME280;43510;51.920;4.492;2022-10-16T03:25:45;67592.13;;;15.67;100.00
44144;BME280;43510;51.920;4.492;2022-10-16T03:28:11;67589.91;;;15.65;100.00
44144;BME280;43510;51.920;4.492;2022-10-16T03:30:40;67588.47;;;15.59;100.00
44144;BME280;43510;51.920;4.492;2022-10-16T03:33:18;67568.59;;;15.46;100.00
44144;BME280;43510;51.920;4.492;2022-10-16T03:35:51;67578.72;;;15.55;100.00
44144;BME280;43510;51.920;4.492;2022-10-16T03:38:18;67577.97;;;15.52;100.00
44144;BME280;43510;51.920;4.492;2022-10-16T03:40:43;67570.28;;;15.47;100.00
44144;BME280;43510;51.920;4.492;2022-10-16T03:43:09;67584.31;;;15.60;100.00
44144;BME280;43510;51.920;4.492;2022-10-16T03:45:34;67578.72;;;15.55;100.00
44144;BME280;43510;51.920;4.492;2022-10-16T03:48:00;67576.47;;;15.53;100.00
44144;BME280;43510;51.920;4.492;2022-10-16T03:50:25;67571.97;;;15.49;100.00
44144;BME280;43510;51.920;4.492;2022-10-16T03:52:51;67555.16;;;15.34;100.00
44144;BME280;43510;51.920;4.492;2022-10-16T03:55:16;67558.34;;;15.34;100.00
44144;BME280;43510;51.920;4.492;2022-10-16T03:57:47;67562.44;;;15.40;100.00
44144;BME280;43510;51.920;4.492;2022-10-16T04:00:17;67563.94;;;15.39;100.00
44144;BME280;43510;51.920;4.492;2022-10-16T04:02:43;67559.63;;;15.38;100.00
44144;BME280;43510;51.920;4.492;2022-10-16T04:05:09;67554.75;;;15.36;100.00
44144;BME280;43510;51.920;4.492;2022-10-16T04:07:34;67555.16;;;15.34;100.00
44144;BME280;43510;51.920;4.492;2022-10-16T04:10:00;67552.91;;;15.32;100.00
44144;BME280;43510;51.920;4.492;2022-10-16T04:12:26;67558.34;;;15.34;100.00
44144;BME280;43510;51.920;4.492;2022-10-16T04:14:52;67553.63;;;15.35;100.00
44144;BME280;43510;51.920;4.492;2022-10-16T04:17:17;67559.31;;;15.33;100.00
44144;BME280;43510;51.920;4.492;2022-10-16T04:19:42;67545.41;;;15.30;100.00
44144;BME280;43510;51.920;4.492;2022-10-16T04:22:08;67552.91;;;15.32;100.00
44144;BME280;43510;51.920;4.492;2022-10-16T04:24:34;67545.97;;;15.30;100.00
44144;BME280;43510;51.920;4.492;2022-10-16T04:26:59;67559.06;;;15.37;100.00
44144;BME280;43510;51.920;4.492;2022-10-16T04:29:29;67558.53;;;15.37;100.00
44144;BME280;43510;51.920;4.492;2022-10-16T04:32:16;67560.75;;;15.39;100.00
44144;BME280;43510;51.920;4.492;2022-10-16T04:34:41;67555.47;;;15.39;100.00
44144;BME280;43510;51.920;4.492;2022-10-16T04:37:07;67569.16;;;15.46;100.00
44144;BME280;43510;51.920;4.492;2022-10-16T04:39:32;67569.72;;;15.47;100.00
44144;BME280;43510;51.920;4.492;2022-10-16T04:41:58;67569.72;;;15.47;100.00
44144;BME280;43510;51.920;4.492;2022-10-16T04:44:23;67566.91;;;15.44;100.00
44144;BME280;43510;51.920;4.492;2022-10-16T04:46:50;67565.25;;;15.43;100.00
44144;BME280;43510;51.920;4.492;2022-10-16T04:49:15;67573.06;;;15.50;100.00
44144;BME280;43510;51.920;4.492;2022-10-16T04:51:41;67579.66;;;15.54;100.00
44144;BME280;43510;51.920;4.492;2022-10-16T04:54:08;67574.53;;;15.56;100.00
44144;BME280;43510;51.920;4.492;2022-10-16T04:56:36;67573.81;;;15.53;100.00
44144;BME280;43510;51.920;4.492;2022-10-16T04:59:08;67571.53;;;15.51;100.00
44144;BME280;43510;51.920;4.492;2022-10-16T05:01:35;67570.06;;;15.52;100.00
44144;BME280;43510;51.920;4.492;2022-10-16T05:04:01;67578.16;;;15.55;100.00
44144;BME280;43510;51.920;4.492;2022-10-16T05:06:28;67578.72;;;15.55;100.00
44144;BME280;43510;51.920;4.492;2022-10-16T05:09:05;67586.53;;;15.62;100.00
44144;BME280;43510;51.920;4.492;2022-10-16T05:11:44;67588.22;;;15.64;100.00
44144;BME280;43510;51.920;4.492;2022-10-16T05:14:16;67582.38;;;15.63;100.00
44144;BME280;43510;51.920;4.492;2022-10-16T05:16:42;67592.69;;;15.68;100.00
44144;BME280;43510;51.920;4.492;2022-10-16T05:19:07;67593.81;;;15.69;100.00
44144;BME280;43510;51.920;4.492;2022-10-16T05:21:33;67588.78;;;15.64;100.00
44144;BME280;43510;51.920;4.492;2022-10-16T05:23:58;67578.72;;;15.55;100.00
44144;BME280;43510;51.920;4.492;2022-10-16T05:26:23;67572.34;;;15.47;100.00
44144;BME280;43510;51.920;4.492;2022-10-16T05:28:49;67555.16;;;15.34;100.00
44144;BME280;43510;51.920;4.492;2022-10-16T05:31:15;67550.69;;;15.30;100.00
44144;BME280;43510;51.920;4.492;2022-10-16T05:33:40;67545.63;;;15.25;100.00
44144;BME280;43510;51.920;4.492;2022-10-16T05:36:10;67548.44;;;15.28;100.00
44144;BME280;43510;51.920;4.492;2022-10-16T05:38:41;67550.13;;;15.29;100.00
44144;BME280;43510;51.920;4.492;2022-10-16T05:41:09;67560.81;;;15.32;100.00
44144;BME280;43510;51.920;4.492;2022-10-16T05:43:36;67550.69;;;15.30;100.00
44144;BME280;43510;51.920;4.492;2022-10-16T05:46:06;67552.91;;;15.32;100.00
44144;BME280;43510;51.920;4.492;2022-10-16T05:48:54;67556.84;;;15.35;100.00
44144;BME280;43510;51.920;4.492;2022-10-16T05:51:47;67563.00;;;15.41;100.00
44144;BME280;43510;51.920;4.492;2022-10-16T05:54:31;67566.34;;;15.44;100.00
44144;BME280;43510;51.920;4.492;2022-10-16T05:57:03;67573.47;;;15.48;100.00
44144;BME280;43510;51.920;4.492;2022-10-16T05:59:32;67571.41;;;15.48;100.00
44144;BME280;43510;51.920;4.492;2022-10-16T06:01:59;67566.13;;;15.48;100.00
44144;BME280;43510;51.920;4.492;2022-10-16T06:04:25;67572.34;;;15.47;100.00
44144;BME280;43510;51.920;4.492;2022-10-16T06:06:51;67569.72;;;15.47;100.00
44144;BME280;43510;51.920;4.492;2022-10-16T06:09:18;67576.28;;;15.50;100.00
44144;BME280;43510;51.920;4.492;2022-10-16T06:11:43;67574.03;;;15.48;100.00
44144;BME280;43510;51.920;4.492;2022-10-16T06:14:09;67576.13;;;15.48;100.00
44144;BME280;43510;51.920;4.492;2022-10-16T06:16:36;67569.97;;;15.42;100.00
44144;BME280;43510;51.920;4.492;2022-10-16T06:19:02;67542.84;;;15.23;100.00
44144;BME280;43510;51.920;4.492;2022-10-16T06:21:31;67552.34;;;15.31;100.00
44144;BME280;43510;51.920;4.492;2022-10-16T06:23:57;67556.97;;;15.38;100.00
44144;BME280;43510;51.920;4.492;2022-10-16T06:26:25;67563.56;;;15.41;100.00
44144;BME280;43510;51.920;4.492;2022-10-16T06:28:51;67552.34;;;15.31;100.00
44144;BME280;43510;51.920;4.492;2022-10-16T06:31:17;67566.34;;;15.44;100.00
44144;BME280;43510;51.920;4.492;2022-10-16T06:33:42;67573.06;;;15.50;100.00
44144;BME280;43510;51.920;4.492;2022-10-16T06:36:13;67583.31;;;15.62;100.00
44144;BME280;43510;51.920;4.492;2022-10-16T06:38:40;67582.22;;;15.61;100.00
44144;BME280;43510;51.920;4.492;2022-10-16T06:41:06;67585.41;;;15.61;100.00
44144;BME280;43510;51.920;4.492;2022-10-16T06:43:32;67580.63;;;15.52;100.00
44144;BME280;43510;51.920;4.492;2022-10-16T06:46:01;67574.19;;;15.51;100.00
44144;BME280;43510;51.920;4.492;2022-10-16T06:48:28;67588.06;;;15.61;100.00
44144;BME280;43510;51.920;4.492;2022-10-16T06:51:00;67590.47;;;15.66;100.00
44144;BME280;43510;51.920;4.492;2022-10-16T06:53:28;67585.97;;;15.62;100.00
44144;BME280;43510;51.920;4.492;2022-10-16T06:55:54;67584.88;;;15.61;100.00
44144;BME280;43510;51.920;4.492;2022-10-16T06:58:20;67598.16;;;15.70;100.00
44144;BME280;43510;51.920;4.492;2022-10-16T07:00:45;67590.06;;;15.68;100.00
44144;BME280;43510;51.920;4.492;2022-10-16T07:03:11;67585.00;;;15.63;100.00
44144;BME280;43510;51.920;4.492;2022-10-16T07:05:41;67594.78;;;15.67;100.00
44144;BME280;43510;51.920;4.492;2022-10-16T07:08:07;67588.78;;;15.64;100.00
44144;BME280;43510;51.920;4.492;2022-10-16T07:10:33;67575.34;;;15.52;100.00
44144;BME280;43510;51.920;4.492;2022-10-16T07:12:59;67592.13;;;15.67;100.00
44144;BME280;43510;51.920;4.492;2022-10-16T07:15:25;67613.41;;;15.86;100.00
44144;BME280;43510;51.920;4.492;2022-10-16T07:17:50;67645.03;;;16.10;100.00
44144;BME280;43510;51.920;4.492;2022-10-16T07:20:18;67679.72;;;16.49;100.00
44144;BME280;43510;51.920;4.492;2022-10-16T07:22:43;67705.22;;;16.67;100.00
44144;BME280;43510;51.920;4.492;2022-10-16T07:25:09;67711.38;;;16.72;100.00
44144;BME280;43510;51.920;4.492;2022-10-16T07:27:34;67722.19;;;16.85;100.00
44144;BME280;43510;51.920;4.492;2022-10-16T07:30:03;67738.13;;;16.94;100.00
44144;BME280;43510;51.920;4.492;2022-10-16T07:32:29;67731.16;;;16.93;100.00
44144;BME280;43510;51.920;4.492;2022-10-16T07:34:54;67745.91;;;17.08;100.00
44144;BME280;43510;51.920;4.492;2022-10-16T07:37:21;67753.59;;;17.13;100.00
44144;BME280;43510;51.920;4.492;2022-10-16T07:39:46;67751.63;;;17.16;100.00
44144;BME280;43510;51.920;4.492;2022-10-16T07:42:11;67756.41;;;17.16;100.00
44144;BME280;43510;51.920;4.492;2022-10-16T07:44:38;67774.91;;;17.32;100.00
44144;BME280;43510;51.920;4.492;2022-10-16T07:47:03;67790.59;;;17.46;100.00
44144;BME280;43510;51.920;4.492;2022-10-16T07:49:29;67800.13;;;17.55;99.63
44144;BME280;43510;51.920;4.492;2022-10-16T07:51:54;67817.81;;;17.66;98.97
44144;BME280;43510;51.920;4.492;2022-10-16T07:54:19;67826.53;;;17.79;98.57
44144;BME280;43510;51.920;4.492;2022-10-16T07:56:45;67831.75;;;17.86;97.93
44144;BME280;43510;51.920;4.492;2022-10-16T07:59:10;67847.28;;;17.98;97.08
44144;BME280;43510;51.920;4.492;2022-10-16T08:01:40;67860.19;;;18.09;97.15
44144;BME280;43510;51.920;4.492;2022-10-16T08:04:08;67874.38;;;18.24;95.66
44144;BME280;43510;51.920;4.492;2022-10-16T08:06:39;67888.03;;;18.39;95.18
44144;BME280;43510;51.920;4.492;2022-10-16T08:09:06;67897.25;;;18.43;94.05
44144;BME280;43510;51.920;4.492;2022-10-16T08:11:32;67916.91;;;18.60;92.43
44144;BME280;43510;51.920;4.492;2022-10-16T08:13:58;67948.22;;;18.86;92.25
44144;BME280;43510;51.920;4.492;2022-10-16T08:16:23;67971.41;;;19.09;91.27
44144;BME280;43510;51.920;4.492;2022-10-16T08:18:49;67999.22;;;19.39;89.77
44144;BME280;43510;51.920;4.492;2022-10-16T08:21:19;68032.66;;;19.65;88.54
44144;BME280;43510;51.920;4.492;2022-10-16T08:23:45;68063.16;;;19.94;87.12
44144;BME280;43510;51.920;4.492;2022-10-16T08:26:12;68063.16;;;19.94;86.57
44144;BME280;43510;51.920;4.492;2022-10-16T08:28:38;68053.88;;;19.81;86.44
44144;BME280;43510;51.920;4.492;2022-10-16T08:31:09;68039.25;;;19.68;87.14
44144;BME280;43510;51.920;4.492;2022-10-16T08:33:35;68032.09;;;19.64;86.92
44144;BME280;43510;51.920;4.492;2022-10-16T08:36:01;68034.03;;;19.61;87.58
44144;BME280;43510;51.920;4.492;2022-10-16T08:38:26;68023.81;;;19.59;87.58
44144;BME280;43510;51.920;4.492;2022-10-16T08:40:55;68024.94;;;19.60;87.45
44144;BME280;43510;51.920;4.492;2022-10-16T08:43:51;68059.06;;;19.88;87.63
44144;BME280;43510;51.920;4.492;2022-10-16T08:49:23;68117.97;;;20.39;85.29
44144;BME280;43510;51.920;4.492;2022-10-16T08:51:50;68113.75;;;20.40;85.18
44144;BME280;43510;51.920;4.492;2022-10-16T08:54:32;68103.22;;;20.33;85.17
44144;BME280;43510;51.920;4.492;2022-10-16T08:57:14;68104.03;;;20.29;85.31
44144;BME280;43510;51.920;4.492;2022-10-16T08:59:42;68061.31;;;19.90;85.22
44144;BME280;43510;51.920;4.492;2022-10-16T09:05:01;68059.06;;;19.88;86.49
44144;BME280;43510;51.920;4.492;2022-10-16T09:07:43;68061.88;;;19.91;86.41
44144;BME280;43510;51.920;4.492;2022-10-16T09:16:01;68008.81;;;19.48;87.79
44144;BME280;43510;51.920;4.492;2022-10-16T09:18:54;67989.94;;;19.26;88.74
44144;BME280;43510;51.920;4.492;2022-10-16T09:21:30;67995.41;;;19.29;89.40
44144;BME280;43510;51.920;4.492;2022-10-16T09:24:11;68008.66;;;19.45;89.21
44144;BME280;43510;51.920;4.492;2022-10-16T09:26:39;67996.66;;;19.32;88.45
44144;BME280;43510;51.920;4.492;2022-10-16T09:29:11;68007.50;;;19.44;89.06
44144;BME280;43510;51.920;4.492;2022-10-16T09:31:37;68023.09;;;19.56;87.61
44144;BME280;43510;51.920;4.492;2022-10-16T09:34:03;68033.94;;;19.68;87.34
44144;BME280;43510;51.920;4.492;2022-10-16T09:36:39;68065.25;;;19.94;87.02
44144;BME280;43510;51.920;4.492;2022-10-16T09:39:10;68079.16;;;20.04;86.30
44144;BME280;43510;51.920;4.492;2022-10-16T09:41:42;68096.47;;;20.27;86.02
44144;BME280;43510;51.920;4.492;2022-10-16T09:44:21;68150.16;;;20.70;83.70
44144;BME280;43510;51.920;4.492;2022-10-16T09:46:48;68165.50;;;20.87;82.87
44144;BME280;43510;51.920;4.492;2022-10-16T09:49:25;68206.03;;;21.23;81.94
44144;BME280;43510;51.920;4.492;2022-10-16T09:52:03;68253.84;;;21.66;79.98
44144;BME280;43510;51.920;4.492;2022-10-16T09:54:28;68272.00;;;21.85;78.50
44144;BME280;43510;51.920;4.492;2022-10-16T09:57:04;68265.66;;;21.77;78.23
44144;BME280;43510;51.920;4.492;2022-10-16T09:59:31;68255.41;;;21.65;77.95
44144;BME280;43510;51.920;4.492;2022-10-16T10:02:01;68264.97;;;21.74;78.08
44144;BME280;43510;51.920;4.492;2022-10-16T10:04:37;68319.03;;;22.22;75.63
44144;BME280;43510;51.920;4.492;2022-10-16T10:07:17;68275.38;;;21.88;76.44
44144;BME280;43510;51.920;4.492;2022-10-16T10:09:44;68255.69;;;21.70;76.25
44144;BME280;43510;51.920;4.492;2022-10-16T10:12:23;68257.66;;;21.67;76.88
44144;BME280;43510;51.920;4.492;2022-10-16T10:14:51;68263.84;;;21.73;76.35
44144;BME280;43510;51.920;4.492;2022-10-16T10:17:24;68283.38;;;21.88;75.79
44144;BME280;43510;51.920;4.492;2022-10-16T10:19:58;68288.22;;;21.97;76.06
44144;BME280;43510;51.920;4.492;2022-10-16T10:27:46;68301.00;;;22.06;74.74
44144;BME280;43510;51.920;4.492;2022-10-16T10:35:32;68358.03;;;22.60;71.31
44144;BME280;43510;51.920;4.492;2022-10-16T10:46:28;68333.25;;;22.37;71.47
44144;BME280;43510;51.920;4.492;2022-10-16T10:54:34;68306.06;;;22.11;70.96
44144;BME280;43510;51.920;4.492;2022-10-16T11:05:21;68262.41;;;21.67;66.92
44144;BME280;43510;51.920;4.492;2022-10-16T11:07:54;68244.16;;;21.55;67.64
44144;BME280;43510;51.920;4.492;2022-10-16T11:10:27;68227.81;;;21.40;68.07
44144;BME280;43510;51.920;4.492;2022-10-16T11:13:32;68252.59;;;21.63;67.96
44144;BME280;43510;51.920;4.492;2022-10-16T11:16:08;68245.84;;;21.56;67.67
44144;BME280;43510;51.920;4.492;2022-10-16T11:21:08;68224.84;;;21.35;68.58
44144;BME280;43510;51.920;4.492;2022-10-16T11:26:13;68222.91;;;21.38;67.01
44144;BME280;43510;51.920;4.492;2022-10-16T11:28:45;68202.66;;;21.20;66.38
44144;BME280;43510;51.920;4.492;2022-10-16T11:31:36;68198.88;;;21.19;65.94
44144;BME280;43510;51.920;4.492;2022-10-16T11:34:28;68191.81;;;21.08;64.77
44144;BME280;43510;51.920;4.492;2022-10-16T11:39:39;68212.38;;;21.31;65.99
44144;BME280;43510;51.920;4.492;2022-10-16T11:44:48;68234.31;;;21.51;65.49
44144;BME280;43510;51.920;4.492;2022-10-16T11:47:24;68251.03;;;21.64;64.31
44144;BME280;43510;51.920;4.492;2022-10-16T11:49:57;68263.00;;;21.67;63.17
44144;BME280;43510;51.920;4.492;2022-10-16T11:55:16;68266.81;;;21.78;60.69
44144;BME280;43510;51.920;4.492;2022-10-16T11:57:47;68276.78;;;21.84;61.48
44144;BME280;43510;51.920;4.492;2022-10-16T12:00:28;68284.09;;;21.91;61.29
44144;BME280;43510;51.920;4.492;2022-10-16T12:10:26;68305.53;;;22.10;60.54
44144;BME280;43510;51.920;4.492;2022-10-16T12:12:52;68313.38;;;22.17;59.02
44144;BME280;43510;51.920;4.492;2022-10-16T12:15:24;68297.63;;;22.03;58.65
44144;BME280;43510;51.920;4.492;2022-10-16T12:17:50;68289.91;;;21.98;59.38
44144;BME280;43510;51.920;4.492;2022-10-16T12:25:40;68286.91;;;21.93;56.31
44144;BME280;43510;51.920;4.492;2022-10-16T12:30:42;68255.97;;;21.66;55.15
44144;BME280;43510;51.920;4.492;2022-10-16T12:33:21;68252.03;;;21.62;55.01
44144;BME280;43510;51.920;4.492;2022-10-16T12:35:47;68253.13;;;21.63;54.85
44144;BME280;43510;51.920;4.492;2022-10-16T12:39:06;68273.97;;;21.82;53.85
44144;BME280;43510;51.920;4.492;2022-10-16T12:41:08;68273.97;;;21.82;53.44
44144;BME280;43510;51.920;4.492;2022-10-16T12:43:37;68275.66;;;21.83;54.00
44144;BME280;43510;51.920;4.492;2022-10-16T12:48:34;68260.44;;;21.70;52.92
44144;BME280;43510;51.920;4.492;2022-10-16T12:54:02;68216.16;;;21.32;54.33
44144;BME280;43510;51.920;4.492;2022-10-16T12:56:53;68216.00;;;21.30;55.18
44144;BME280;43510;51.920;4.492;2022-10-16T13:21:40;68260.88;;;21.68;60.31
44144;BME280;43510;51.920;4.492;2022-10-16T13:30:44;68255.97;;;21.66;59.83
44144;BME280;43510;51.920;4.492;2022-10-16T13:33:20;68233.88;;;21.43;59.93
44144;BME280;43510;51.920;4.492;2022-10-16T13:35:54;68220.25;;;21.38;60.38
44144;BME280;43510;51.920;4.492;2022-10-16T13:38:24;68219.81;;;21.31;60.45
44144;BME280;43510;51.920;4.492;2022-10-16T13:41:00;68240.63;;;21.49;60.52
44144;BME280;43510;51.920;4.492;2022-10-16T13:46:03;68257.09;;;21.67;59.97
44144;BME280;43510;51.920;4.492;2022-10-16T13:48:30;68267.22;;;21.76;58.81
44144;BME280;43510;51.920;4.492;2022-10-16T13:53:33;68260.44;;;21.70;58.59
44144;BME280;43510;51.920;4.492;2022-10-16T13:55:59;68253.69;;;21.64;58.34
44144;BME280;43510;51.920;4.492;2022-10-16T13:58:25;68252.72;;;21.65;58.25
44144;BME280;43510;51.920;4.492;2022-10-16T14:00:59;68264.97;;;21.74;58.36
44144;BME280;43510;51.920;4.492;2022-10-16T14:03:27;68267.63;;;21.74;58.28
44144;BME280;43510;51.920;4.492;2022-10-16T14:05:55;68257.09;;;21.67;57.79
44144;BME280;43510;51.920;4.492;2022-10-16T14:08:26;68257.38;;;21.62;57.91
44144;BME280;43510;51.920;4.492;2022-10-16T14:10:55;68240.19;;;21.51;57.41
44144;BME280;43510;51.920;4.492;2022-10-16T14:13:36;68233.44;;;21.45;57.85
44144;BME280;43510;51.920;4.492;2022-10-16T14:16:07;68235.69;;;21.47;57.91
44144;BME280;43510;51.920;4.492;2022-10-16T14:18:35;68236.81;;;21.48;58.24
44144;BME280;43510;51.920;4.492;2022-10-16T14:21:07;68240.19;;;21.51;58.52
44144;BME280;43510;51.920;4.492;2022-10-16T14:23:38;68228.38;;;21.41;58.32
44144;BME280;43510;51.920;4.492;2022-10-16T14:28:37;68204.75;;;21.20;58.17
44144;BME280;43510;51.920;4.492;2022-10-16T14:33:51;68200.25;;;21.15;58.46
44144;BME280;43510;51.920;4.492;2022-10-16T14:36:17;68195.59;;;21.09;58.69
44144;BME280;43510;51.920;4.492;2022-10-16T14:41:15;68186.59;;;21.01;59.24
44144;BME280;43510;51.920;4.492;2022-10-16T14:43:42;68183.50;;;21.03;59.42
44144;BME280;43510;51.920;4.492;2022-10-16T14:46:32;68183.91;;;21.01;59.66
44144;BME280;43510;51.920;4.492;2022-10-16T14:49:18;68177.00;;;20.92;60.03
44144;BME280;43510;51.920;4.492;2022-10-16T14:51:46;68161.97;;;20.81;60.09
44144;BME280;43510;51.920;4.492;2022-10-16T14:54:14;68161.41;;;20.81;60.42
44144;BME280;43510;51.920;4.492;2022-10-16T14:56:50;68170.97;;;20.89;60.17
44144;BME280;43510;51.920;4.492;2022-10-16T14:59:39;68168.16;;;20.87;60.23
44144;BME280;43510;51.920;4.492;2022-10-16T15:04:46;68145.25;;;20.68;61.13
44144;BME280;43510;51.920;4.492;2022-10-16T15:07:12;68143.41;;;20.64;61.31
44144;BME280;43510;51.920;4.492;2022-10-16T15:09:38;68149.03;;;20.69;61.40
44144;BME280;43510;51.920;4.492;2022-10-16T15:12:04;68146.81;;;20.67;61.50
44144;BME280;43510;51.920;4.492;2022-10-16T15:14:30;68134.56;;;20.59;62.27
44144;BME280;43510;51.920;4.492;2022-10-16T15:16:55;68148.75;;;20.64;62.24
44144;BME280;43510;51.920;4.492;2022-10-16T15:19:20;68129.66;;;20.57;62.35